createdAt,value
2018-12-03T00:01:12.801Z,8.73
2018-12-03T00:03:40.840Z,9.67
2018-12-03T00:06:08.881Z,9.30
2018-12-03T00:08:36.792Z,10.90
2018-12-03T00:11:04.983Z,11.40
2018-12-03T00:13:32.896Z,11.67
2018-12-03T00:16:00.764Z,12.80
2018-12-03T00:18:28.714Z,12.73
2018-12-03T00:20:56.650Z,13.27
2018-12-03T00:23:24.571Z,13.57
2018-12-03T00:25:52.783Z,13.90
2018-12-03T00:28:20.732Z,14.07
2018-12-03T00:30:48.614Z,14.17
2018-12-03T00:33:16.558Z,15.17
2018-12-03T00:35:44.494Z,15.90
2018-12-03T00:38:12.385Z,14.93
2018-12-03T00:40:40.295Z,15.23
2018-12-03T00:43:08.259Z,16.73
2018-12-03T00:45:36.171Z,16.83
2018-12-03T00:48:04.133Z,16.53
2018-12-03T00:50:32.047Z,16.60
2018-12-03T00:52:59.947Z,15.97
2018-12-03T00:55:27.843Z,16.90
2018-12-03T00:57:55.754Z,16.63
2018-12-03T01:00:23.626Z,18.47
2018-12-03T01:02:51.711Z,18.67
2018-12-03T01:05:19.571Z,17.73
2018-12-03T01:07:47.444Z,18.50
2018-12-03T01:10:15.317Z,18.80
2018-12-03T01:12:43.187Z,19.23
2018-12-03T01:15:11.146Z,19.67
2018-12-03T01:17:39.035Z,18.93
2018-12-03T01:20:09.915Z,18.97
2018-12-03T01:22:37.843Z,20.17
2018-12-03T01:25:06.003Z,18.90
2018-12-03T01:27:33.899Z,18.90
2018-12-03T01:30:01.796Z,19.73
2018-12-03T01:32:29.674Z,18.77
2018-12-03T01:34:57.644Z,17.23
2018-12-03T01:37:25.543Z,19.70
2018-12-03T01:39:53.534Z,18.50
2018-12-03T01:42:21.447Z,18.27
2018-12-03T01:44:49.338Z,18.03
2018-12-03T01:47:17.289Z,18.63
2018-12-03T01:49:45.171Z,18.37
2018-12-03T01:52:13.118Z,18.80
2018-12-03T01:54:41.050Z,18.90
2018-12-03T01:57:08.960Z,17.47
2018-12-03T01:59:36.923Z,17.40
2018-12-03T02:02:05.027Z,17.80
2018-12-03T02:04:32.949Z,17.57
2018-12-03T02:07:00.921Z,17.20
2018-12-03T02:09:28.826Z,15.33
2018-12-03T02:11:56.748Z,17.07
2018-12-03T02:14:24.658Z,16.90
2018-12-03T02:16:52.614Z,17.23
2018-12-03T02:19:20.507Z,17.73
2018-12-03T02:21:48.442Z,16.93
2018-12-03T02:24:16.361Z,15.40
2018-12-03T02:26:44.279Z,16.33
2018-12-03T02:29:12.174Z,17.03
2018-12-03T02:31:40.105Z,16.40
2018-12-03T02:34:08.048Z,15.80
2018-12-03T02:36:35.991Z,16.53
2018-12-03T02:39:05.967Z,16.47
2018-12-03T02:41:33.920Z,16.00
2018-12-03T02:44:01.839Z,15.77
2018-12-03T02:46:29.794Z,17.40
2018-12-03T02:48:57.701Z,16.17
2018-12-03T02:51:25.641Z,16.13
2018-12-03T02:53:53.550Z,15.13
2018-12-03T02:56:21.420Z,16.90
2018-12-03T02:58:49.375Z,16.47
2018-12-03T03:01:17.470Z,16.07
2018-12-03T03:03:45.389Z,16.30
2018-12-03T03:06:13.286Z,16.03
2018-12-03T03:08:41.197Z,16.23
2018-12-03T03:11:09.140Z,16.50
2018-12-03T03:13:37.103Z,17.33
2018-12-03T03:16:04.990Z,16.60
2018-12-03T03:18:32.999Z,16.57
2018-12-03T03:21:00.928Z,16.20
2018-12-03T03:23:28.827Z,16.90
2018-12-03T03:25:56.713Z,15.80
2018-12-03T03:28:24.617Z,16.90
2018-12-03T03:30:52.621Z,16.27
2018-12-03T03:33:20.520Z,16.17
2018-12-03T03:35:48.479Z,16.43
2018-12-03T03:38:16.407Z,16.67
2018-12-03T03:40:44.349Z,15.70
2018-12-03T03:43:12.272Z,15.60
2018-12-03T03:45:40.199Z,14.87
2018-12-03T03:48:08.160Z,16.00
2018-12-03T03:50:36.092Z,14.50
2018-12-03T03:53:04.098Z,14.27
2018-12-03T03:55:31.987Z,14.40
2018-12-03T03:57:59.878Z,13.53
2018-12-03T04:00:27.778Z,13.10
2018-12-03T04:02:55.744Z,14.07
2018-12-03T04:05:23.618Z,12.07
2018-12-03T04:07:51.572Z,13.37
2018-12-03T04:10:19.456Z,10.50
2018-12-03T04:12:47.365Z,11.87
2018-12-03T04:15:16.000Z,11.13
2018-12-03T04:17:43.983Z,11.27
2018-12-03T04:20:17.062Z,9.63
2018-12-03T04:22:46.351Z,9.80
2018-12-03T04:25:14.279Z,10.50
2018-12-03T04:27:42.241Z,10.67
2018-12-03T04:30:16.253Z,10.90
2018-12-03T04:32:44.117Z,10.87
2018-12-03T04:35:12.552Z,10.90
2018-12-03T04:37:40.617Z,10.07
2018-12-03T04:40:10.983Z,9.90
2018-12-03T04:42:38.895Z,10.30
2018-12-03T04:45:09.552Z,10.33
2018-12-03T04:47:37.458Z,10.33
2018-12-03T04:50:08.528Z,9.47
2018-12-03T04:52:36.483Z,9.17
2018-12-03T04:55:04.580Z,9.33
2018-12-03T04:57:32.530Z,9.47
2018-12-03T05:00:00.392Z,9.40
2018-12-03T05:02:28.331Z,9.13
2018-12-03T05:04:56.403Z,9.00
2018-12-03T05:07:24.293Z,9.00
2018-12-03T05:09:52.178Z,9.00
2018-12-03T05:12:20.130Z,8.90
2018-12-03T05:14:48.036Z,9.20
2018-12-03T05:17:15.967Z,8.33
2018-12-03T05:19:43.886Z,8.13
2018-12-03T05:22:11.800Z,8.87
2018-12-03T05:24:39.738Z,8.80
2018-12-03T05:27:07.771Z,8.60
2018-12-03T05:29:35.675Z,8.60
2018-12-03T05:32:03.621Z,8.23
2018-12-03T05:34:31.551Z,8.17
2018-12-03T05:36:59.475Z,8.43
2018-12-03T05:39:27.435Z,8.50
2018-12-03T05:41:55.350Z,8.67
2018-12-03T05:44:23.302Z,8.23
2018-12-03T05:46:51.179Z,8.33
2018-12-03T05:49:19.084Z,8.23
2018-12-03T05:51:46.963Z,8.00
2018-12-03T05:54:14.906Z,8.27
2018-12-03T05:56:42.852Z,8.00
2018-12-03T05:59:10.772Z,7.47
2018-12-03T06:01:38.708Z,8.20
2018-12-03T06:04:06.679Z,6.87
2018-12-03T06:06:34.563Z,7.63
2018-12-03T06:09:02.827Z,6.50
2018-12-03T06:11:30.717Z,6.57
2018-12-03T06:13:58.660Z,6.47
2018-12-03T06:16:26.534Z,6.20
2018-12-03T06:18:54.463Z,5.40
2018-12-03T06:21:22.411Z,5.63
2018-12-03T06:23:50.295Z,5.67
2018-12-03T06:26:18.203Z,6.13
2018-12-03T06:28:46.100Z,5.93
2018-12-03T06:31:14.015Z,6.00
2018-12-03T06:33:41.919Z,5.63
2018-12-03T06:36:09.853Z,6.00
2018-12-03T06:38:37.768Z,5.90
2018-12-03T06:41:05.694Z,6.03
2018-12-03T06:43:33.591Z,6.37
2018-12-03T06:46:01.633Z,6.37
2018-12-03T06:48:29.561Z,6.73
2018-12-03T06:50:57.416Z,7.10
2018-12-03T06:53:25.330Z,6.87
2018-12-03T06:55:53.243Z,7.20
2018-12-03T06:58:21.150Z,6.93
2018-12-03T07:00:49.069Z,7.67
2018-12-03T07:05:51.518Z,7.13
2018-12-03T07:08:19.805Z,7.93
2018-12-03T07:10:47.746Z,7.43
2018-12-03T07:13:18.851Z,5.20
2018-12-03T07:15:48.582Z,4.23
2018-12-03T07:18:16.517Z,3.97
2018-12-03T07:20:44.479Z,3.30
2018-12-03T07:23:12.347Z,3.60
2018-12-03T07:25:40.239Z,2.40
2018-12-03T07:28:08.160Z,3.30
2018-12-03T07:30:36.055Z,3.30
2018-12-03T07:33:04.049Z,3.17
2018-12-03T07:35:32.005Z,3.77
2018-12-03T07:37:59.928Z,3.77
2018-12-03T07:40:27.824Z,4.23
2018-12-03T07:42:55.695Z,4.40
2018-12-03T07:45:24.422Z,4.07
2018-12-03T07:47:52.309Z,4.53
2018-12-03T07:50:21.301Z,4.13
2018-12-03T07:52:49.276Z,3.70
2018-12-03T07:55:18.495Z,3.60
2018-12-03T07:57:51.661Z,4.17
2018-12-03T08:00:24.509Z,3.97
2018-12-03T08:02:52.458Z,4.43
2018-12-03T08:05:20.316Z,3.80
2018-12-03T08:07:48.248Z,4.20
2018-12-03T08:10:17.104Z,3.93
2018-12-03T08:12:46.039Z,4.37
2018-12-03T08:15:15.326Z,4.47
2018-12-03T08:17:46.802Z,4.23
2018-12-03T08:20:22.354Z,4.17
2018-12-03T08:22:52.148Z,3.80
2018-12-03T08:25:20.847Z,4.13
2018-12-03T08:27:48.747Z,4.47
2018-12-03T08:30:16.709Z,4.23
2018-12-03T08:32:44.583Z,4.47
2018-12-03T08:35:14.377Z,4.77
2018-12-03T08:37:42.364Z,5.20
2018-12-03T08:40:13.904Z,5.17
2018-12-03T08:42:45.628Z,4.60
2018-12-03T08:45:13.593Z,5.47
2018-12-03T08:47:41.471Z,5.20
2018-12-03T08:50:15.539Z,5.57
2018-12-03T08:52:43.403Z,4.90
2018-12-03T08:55:11.804Z,4.43
2018-12-03T08:57:39.770Z,5.00
2018-12-03T09:00:10.138Z,5.43
2018-12-03T09:02:56.736Z,4.90
2018-12-03T09:05:25.709Z,5.10
2018-12-03T09:07:53.668Z,5.57
2018-12-03T09:10:22.136Z,4.90
2018-12-03T09:12:50.627Z,5.77
2018-12-03T09:15:18.538Z,5.20
2018-12-03T09:17:46.545Z,5.83
2018-12-03T09:20:14.392Z,5.00
2018-12-03T09:22:42.312Z,5.73
2018-12-03T09:25:20.840Z,5.10
2018-12-03T09:27:48.960Z,5.10
2018-12-03T09:30:16.885Z,5.40
2018-12-03T09:32:44.856Z,4.43
2018-12-03T09:35:12.802Z,4.50
2018-12-03T09:37:40.733Z,4.50
2018-12-03T09:40:11.832Z,4.13
2018-12-03T09:42:39.748Z,4.37
2018-12-03T09:45:14.102Z,3.80
2018-12-03T09:47:41.992Z,4.60
2018-12-03T09:50:24.588Z,3.80
2018-12-03T09:52:52.904Z,3.80
2018-12-03T09:55:32.377Z,3.63
2018-12-03T09:58:06.627Z,3.63
2018-12-03T10:00:34.555Z,4.13
2018-12-03T10:03:05.192Z,4.40
2018-12-03T10:05:36.758Z,4.73
2018-12-03T10:08:04.701Z,4.43
2018-12-03T10:10:32.627Z,4.17
2018-12-03T10:13:05.920Z,4.53
2018-12-03T10:15:34.000Z,4.60
2018-12-03T10:18:01.905Z,4.27
2018-12-03T10:20:29.792Z,4.73
2018-12-03T10:22:58.049Z,3.70
2018-12-03T10:25:26.019Z,4.17
2018-12-03T10:28:00.622Z,4.00
2018-12-03T10:30:28.782Z,4.17
2018-12-03T10:32:56.650Z,3.93
2018-12-03T10:35:32.306Z,4.40
2018-12-03T10:38:08.575Z,4.20
2018-12-03T10:40:40.307Z,4.17
2018-12-03T10:43:09.815Z,4.17
2018-12-03T10:45:37.773Z,4.93
2018-12-03T10:48:06.115Z,4.10
2018-12-03T10:50:34.063Z,3.90
2018-12-03T10:53:02.063Z,5.10
2018-12-03T10:55:30.063Z,4.17
2018-12-03T10:57:58.032Z,4.13
2018-12-03T11:00:31.570Z,4.50
2018-12-03T11:03:06.850Z,6.07
2018-12-03T11:05:40.324Z,5.00
2018-12-03T11:08:08.237Z,4.57
2018-12-03T11:10:38.679Z,4.43
2018-12-03T11:13:06.696Z,4.40
2018-12-03T11:15:34.647Z,4.40
2018-12-03T11:18:03.731Z,4.70
2018-12-03T11:20:32.596Z,3.90
2018-12-03T11:23:00.526Z,4.83
2018-12-03T11:25:31.495Z,5.37
2018-12-03T11:28:01.148Z,4.37
2018-12-03T11:30:29.369Z,4.30
2018-12-03T11:32:57.280Z,4.67
2018-12-03T11:35:29.056Z,4.77
2018-12-03T11:38:05.975Z,4.83
2018-12-03T11:40:42.647Z,5.07
2018-12-03T11:43:10.839Z,4.73
2018-12-03T11:45:38.717Z,4.33
2018-12-03T11:48:07.109Z,4.57
2018-12-03T11:50:35.124Z,5.60
2018-12-03T11:53:03.025Z,4.60
2018-12-03T11:55:30.903Z,4.47
2018-12-03T11:57:58.775Z,4.13
2018-12-03T12:00:26.752Z,4.27
2018-12-03T12:02:54.665Z,4.77
2018-12-03T12:05:22.572Z,4.83
2018-12-03T12:07:50.452Z,4.00
2018-12-03T12:10:18.550Z,4.10
2018-12-03T12:12:46.379Z,4.23
2018-12-03T12:15:14.231Z,3.80
2018-12-03T12:17:42.210Z,4.07
2018-12-03T12:20:10.662Z,3.77
2018-12-03T12:22:38.574Z,3.60
2018-12-03T12:25:09.831Z,3.43
2018-12-03T12:27:38.268Z,3.50
2018-12-03T12:30:11.471Z,3.33
2018-12-03T12:32:39.388Z,3.80
2018-12-03T12:35:08.019Z,4.03
2018-12-03T12:37:35.851Z,4.17
2018-12-03T12:40:04.732Z,3.60
2018-12-03T12:42:32.645Z,3.60
2018-12-03T12:45:00.499Z,3.43
2018-12-03T12:47:28.400Z,4.23
2018-12-03T12:49:56.293Z,3.87
2018-12-03T12:52:24.258Z,4.47
2018-12-03T12:54:52.167Z,4.30
2018-12-03T12:57:20.123Z,3.80
2018-12-03T12:59:48.000Z,3.97
2018-12-03T13:02:16.563Z,3.83
2018-12-03T13:04:44.429Z,3.73
2018-12-03T13:07:12.355Z,3.67
2018-12-03T13:09:40.310Z,3.77
2018-12-03T13:12:08.524Z,3.57
2018-12-03T13:14:36.408Z,4.13
2018-12-03T13:17:04.275Z,3.63
2018-12-03T13:19:32.131Z,3.27
2018-12-03T13:22:00.179Z,4.33
2018-12-03T13:24:28.076Z,3.83
2018-12-03T13:26:56.100Z,3.57
2018-12-03T13:29:24.100Z,3.97
2018-12-03T13:31:51.973Z,3.77
2018-12-03T13:34:19.833Z,3.37
2018-12-03T13:36:47.708Z,4.30
2018-12-03T13:39:15.595Z,3.80
2018-12-03T13:41:43.483Z,4.33
2018-12-03T13:44:11.457Z,4.17
2018-12-03T13:46:39.409Z,3.50
2018-12-03T13:49:07.984Z,3.97
2018-12-03T13:51:36.044Z,4.20
2018-12-03T13:54:03.993Z,3.90
2018-12-03T13:56:31.950Z,3.83
2018-12-03T13:58:59.791Z,4.33
2018-12-03T14:01:27.698Z,4.67
2018-12-03T14:04:01.235Z,4.07
2018-12-03T14:07:13.896Z,4.60
2018-12-03T14:09:55.522Z,3.87
2018-12-03T14:12:30.255Z,4.23
2018-12-03T14:15:40.629Z,4.00
2018-12-03T14:18:18.049Z,3.87
2018-12-03T14:20:48.239Z,4.83
2018-12-03T14:23:20.102Z,3.70
2018-12-03T14:25:47.583Z,5.30
2018-12-03T14:28:15.450Z,4.47
2018-12-03T14:30:43.447Z,4.87
2018-12-03T14:33:11.333Z,4.07
2018-12-03T14:35:39.267Z,4.57
2018-12-03T14:38:07.195Z,4.83
2018-12-03T14:40:35.086Z,4.47
2018-12-03T14:43:03.015Z,4.70
2018-12-03T14:45:31.040Z,4.73
2018-12-03T14:47:58.968Z,4.80
2018-12-03T14:50:26.807Z,4.53
2018-12-03T14:52:54.740Z,5.20
2018-12-03T14:55:22.651Z,5.00
2018-12-03T14:57:50.532Z,4.93
2018-12-03T15:00:18.490Z,4.20
2018-12-03T15:02:46.393Z,5.17
2018-12-03T15:05:14.242Z,4.60
2018-12-03T15:07:42.161Z,5.10
2018-12-03T15:10:10.049Z,5.43
2018-12-03T15:12:37.925Z,5.43
2018-12-03T15:15:08.036Z,4.83
2018-12-03T15:17:36.841Z,4.90
2018-12-03T15:20:05.774Z,5.53
2018-12-03T15:22:33.674Z,5.60
2018-12-03T15:25:01.611Z,5.63
2018-12-03T15:27:29.723Z,5.67
2018-12-03T15:29:57.630Z,5.80
2018-12-03T15:32:25.509Z,6.20
2018-12-03T15:34:53.409Z,6.13
2018-12-03T15:37:21.332Z,5.50
2018-12-03T15:39:49.202Z,6.90
2018-12-03T15:42:17.108Z,6.60
2018-12-03T15:44:45.010Z,6.53
2018-12-03T15:47:12.957Z,6.60
2018-12-03T15:49:40.834Z,6.63
2018-12-03T15:52:08.717Z,5.80
2018-12-03T15:54:36.622Z,7.23
2018-12-03T15:57:04.736Z,7.97
2018-12-03T15:59:32.603Z,6.13
2018-12-03T16:02:00.492Z,7.20
2018-12-03T16:04:28.378Z,6.33
2018-12-03T16:06:56.220Z,8.47
2018-12-03T16:09:24.108Z,8.97
2018-12-03T16:11:51.999Z,6.40
2018-12-03T16:14:19.852Z,7.80
2018-12-03T16:16:47.775Z,6.33
2018-12-03T16:19:15.660Z,6.83
2018-12-03T16:21:43.541Z,7.37
2018-12-03T16:24:11.423Z,8.50
2018-12-03T16:26:39.344Z,7.27
2018-12-03T16:29:07.221Z,8.77
2018-12-03T16:31:35.127Z,8.13
2018-12-03T16:34:03.011Z,8.30
2018-12-03T16:36:30.929Z,7.80
2018-12-03T16:38:58.849Z,7.77
2018-12-03T16:41:26.728Z,7.67
2018-12-03T16:43:54.618Z,7.60
2018-12-03T16:46:22.615Z,7.40
2018-12-03T16:48:50.934Z,7.60
2018-12-03T16:51:18.823Z,8.50
2018-12-03T16:53:46.737Z,8.07
2018-12-03T16:56:14.608Z,8.20
2018-12-03T16:58:42.557Z,7.10
2018-12-03T17:01:10.435Z,7.30
2018-12-03T17:03:38.382Z,8.07
2018-12-03T17:06:06.282Z,6.90
2018-12-03T17:08:34.206Z,6.70
2018-12-03T17:11:02.189Z,6.77
2018-12-03T17:13:30.061Z,6.63
2018-12-03T17:15:57.979Z,6.50
2018-12-03T17:18:25.831Z,7.47
2018-12-03T17:22:06.724Z,6.70
2018-12-03T17:24:36.777Z,6.23
2018-12-03T17:27:05.240Z,5.80
2018-12-03T17:29:33.103Z,6.00
2018-12-03T17:32:01.046Z,5.67
2018-12-03T17:34:28.968Z,7.20
2018-12-03T17:36:56.859Z,7.20
2018-12-03T17:39:24.741Z,6.37
2018-12-03T17:41:52.860Z,6.50
2018-12-03T17:44:20.731Z,7.23
2018-12-03T17:46:48.618Z,7.80
2018-12-03T17:49:16.576Z,6.43
2018-12-03T17:51:44.476Z,6.93
2018-12-03T17:54:12.367Z,8.33
2018-12-03T17:56:40.243Z,9.97
2018-12-03T17:59:08.252Z,11.97
2018-12-03T18:01:36.152Z,8.13
2018-12-03T18:04:04.050Z,7.50
2018-12-03T18:06:31.969Z,11.20
2018-12-03T18:08:59.851Z,8.83
2018-12-03T18:11:27.716Z,8.10
2018-12-03T18:13:55.630Z,8.17
2018-12-03T18:16:23.731Z,8.40
2018-12-03T18:18:51.696Z,9.30
2018-12-03T18:21:19.601Z,7.43
2018-12-03T18:23:47.480Z,7.70
2018-12-03T18:26:15.394Z,8.20
2018-12-03T18:28:43.244Z,7.60
2018-12-03T18:31:11.149Z,8.10
2018-12-03T18:33:39.049Z,7.30
2018-12-03T18:36:06.929Z,7.80
2018-12-03T18:38:34.828Z,7.43
2018-12-03T18:41:03.501Z,7.27
2018-12-03T18:43:30.732Z,7.30
2018-12-03T18:45:58.693Z,7.17
2018-12-03T18:48:26.661Z,7.93
2018-12-03T18:50:55.283Z,7.93
2018-12-03T18:53:25.229Z,7.67
2018-12-03T18:55:53.236Z,7.37
2018-12-03T18:59:27.286Z,7.43
2018-12-03T19:01:55.178Z,8.00
2018-12-03T19:04:52.198Z,8.47
2018-12-03T19:07:20.039Z,8.40
2018-12-03T19:09:47.849Z,9.73
2018-12-03T19:12:15.691Z,8.87
2018-12-03T19:14:43.549Z,7.87
2018-12-03T19:17:11.386Z,8.13
2018-12-03T19:19:39.281Z,7.83
2018-12-03T19:22:07.163Z,7.70
2018-12-03T19:24:35.134Z,7.10
2018-12-03T19:27:03.078Z,7.10
2018-12-03T19:29:30.936Z,7.63
2018-12-03T19:31:58.845Z,7.33
2018-12-03T19:34:26.653Z,7.30
2018-12-03T19:36:54.584Z,6.77
2018-12-03T19:39:22.494Z,7.13
2018-12-03T19:41:50.355Z,7.07
2018-12-03T19:44:18.341Z,6.90
2018-12-03T19:46:46.243Z,7.57
2018-12-03T19:49:14.874Z,6.73
2018-12-03T19:51:42.772Z,7.30
2018-12-03T19:54:10.619Z,6.97
2018-12-03T19:56:38.767Z,7.17
2018-12-03T19:59:06.962Z,6.93
2018-12-03T20:01:34.806Z,8.33
2018-12-03T20:04:02.713Z,7.97
2018-12-03T20:06:30.651Z,8.27
2018-12-03T20:08:58.798Z,8.10
2018-12-03T20:11:26.652Z,8.17
2018-12-03T20:13:54.605Z,9.27
2018-12-03T20:16:22.887Z,8.97
2018-12-03T20:18:51.276Z,9.50
2018-12-03T20:21:24.616Z,10.20
2018-12-03T20:23:55.270Z,8.80
2018-12-03T20:27:31.694Z,9.20
2018-12-03T20:30:08.698Z,8.43
2018-12-03T20:33:00.393Z,9.33
2018-12-03T20:35:46.360Z,9.47
2018-12-03T20:38:54.350Z,10.47
2018-12-03T20:41:28.011Z,10.23
2018-12-03T20:44:09.949Z,9.77
2018-12-03T20:47:43.372Z,10.17
2018-12-03T20:50:18.488Z,10.73
2018-12-03T20:52:47.948Z,10.63
2018-12-03T20:55:30.239Z,10.70
2018-12-03T20:57:58.393Z,9.87
2018-12-03T21:00:26.322Z,11.03
2018-12-03T21:02:57.714Z,10.40
2018-12-03T21:05:25.601Z,11.70
2018-12-03T21:07:53.491Z,12.13
2018-12-03T21:10:21.375Z,10.70
2018-12-03T21:12:49.214Z,11.97
2018-12-03T21:15:17.277Z,10.83
2018-12-03T21:17:45.105Z,12.07
2018-12-03T21:20:20.390Z,12.37
2018-12-03T21:22:48.207Z,12.17
2018-12-03T21:25:15.987Z,12.17
2018-12-03T21:27:43.825Z,11.60
2018-12-03T21:30:11.798Z,11.87
2018-12-03T21:32:39.663Z,12.63
2018-12-03T21:35:07.745Z,11.33
2018-12-03T21:37:35.696Z,11.20
2018-12-03T21:40:03.820Z,10.77
2018-12-03T21:42:45.224Z,11.03
2018-12-03T21:45:13.147Z,10.77
2018-12-03T21:50:35.899Z,11.10
2018-12-03T21:53:10.748Z,9.20
2018-12-03T21:55:38.763Z,9.07
2018-12-03T21:58:06.619Z,8.27
2018-12-03T22:00:34.795Z,8.57
2018-12-03T22:03:02.782Z,8.50
2018-12-03T22:08:05.175Z,8.00
2018-12-03T22:10:32.991Z,6.90
2018-12-03T22:13:00.864Z,7.90
2018-12-03T22:15:28.682Z,8.47
2018-12-03T22:17:56.641Z,7.90
2018-12-03T22:20:24.497Z,6.87
2018-12-03T22:22:52.389Z,6.20
2018-12-03T22:25:20.407Z,6.23
2018-12-03T22:27:48.267Z,5.87
2018-12-03T22:30:16.182Z,5.63
2018-12-03T22:32:44.063Z,6.27
2018-12-03T22:35:18.703Z,5.60
2018-12-03T22:37:46.545Z,5.60
2018-12-03T22:40:14.531Z,6.37
2018-12-03T22:42:42.372Z,5.87
2018-12-03T22:45:10.257Z,5.73
2018-12-03T22:47:38.260Z,3.17
2018-12-03T22:50:06.396Z,2.87
2018-12-03T22:52:34.230Z,2.50
2018-12-03T22:55:02.100Z,1.87
2018-12-03T22:57:29.954Z,1.93
2018-12-03T22:59:57.892Z,2.13
2018-12-03T23:02:25.761Z,2.10
2018-12-03T23:04:53.613Z,1.93
2018-12-03T23:07:21.523Z,1.70
2018-12-03T23:09:49.368Z,1.60
2018-12-03T23:12:17.238Z,2.00
2018-12-03T23:14:45.080Z,1.33
2018-12-03T23:17:13.214Z,1.83
2018-12-03T23:19:41.065Z,1.80
2018-12-03T23:22:08.909Z,2.17
2018-12-03T23:24:36.777Z,2.30
2018-12-03T23:27:04.641Z,2.10
2018-12-03T23:29:32.456Z,2.10
2018-12-03T23:32:00.359Z,2.00
2018-12-03T23:34:28.397Z,1.80
2018-12-03T23:36:56.219Z,1.87
2018-12-03T23:39:24.069Z,1.97
2018-12-03T23:41:52.050Z,1.70
2018-12-03T23:44:19.882Z,2.03
2018-12-03T23:46:47.786Z,1.87
2018-12-03T23:49:15.729Z,2.27
2018-12-03T23:51:43.565Z,1.80
2018-12-03T23:54:11.632Z,2.40
2018-12-03T23:56:39.502Z,2.37
2018-12-03T23:59:07.326Z,2.17
